createdAt,value
2016-12-21T00:00:12.523Z,0
2016-12-21T00:01:21.411Z,0
2016-12-21T00:02:30.001Z,0
2016-12-21T00:03:38.580Z,0
2016-12-21T00:04:47.173Z,0
2016-12-21T00:05:56.524Z,0
2016-12-21T00:07:05.434Z,0
2016-12-21T00:08:14.326Z,0
2016-12-21T00:09:23.221Z,0
2016-12-21T00:10:31.793Z,0
2016-12-21T00:11:40.734Z,0
2016-12-21T00:12:49.639Z,0
2016-12-21T00:13:58.225Z,0
2016-12-21T00:15:06.813Z,0
2016-12-21T00:16:15.702Z,0
2016-12-21T00:17:24.370Z,0
2016-12-21T00:18:33.275Z,0
2016-12-21T00:19:42.173Z,0
2016-12-21T00:20:50.766Z,0
2016-12-21T00:21:59.977Z,0
2016-12-21T00:23:08.609Z,0
2016-12-21T00:24:17.196Z,0
2016-12-21T00:25:25.776Z,0
2016-12-21T00:26:34.399Z,0
2016-12-21T00:27:42.970Z,0
2016-12-21T00:28:51.926Z,0
2016-12-21T00:30:01.136Z,0
2016-12-21T00:31:09.699Z,0
2016-12-21T00:32:18.911Z,0
2016-12-21T00:33:28.151Z,0
2016-12-21T00:34:37.100Z,0
2016-12-21T00:35:46.011Z,0
2016-12-21T00:36:54.616Z,0
2016-12-21T00:38:03.201Z,0
2016-12-21T00:39:12.122Z,0
2016-12-21T00:40:20.742Z,0
2016-12-21T00:41:29.650Z,0
2016-12-21T00:42:38.230Z,0
2016-12-21T00:43:46.820Z,0
2016-12-21T00:44:55.400Z,0
2016-12-21T00:46:04.663Z,0
2016-12-21T00:47:13.242Z,0
2016-12-21T00:48:21.803Z,0
2016-12-21T00:49:31.026Z,0
2016-12-21T00:50:39.604Z,0
2016-12-21T00:51:48.339Z,0
2016-12-21T00:52:56.912Z,0
2016-12-21T00:54:05.818Z,0
2016-12-21T00:55:14.720Z,0
2016-12-21T00:56:23.613Z,0
2016-12-21T00:57:32.281Z,0
2016-12-21T00:58:40.851Z,0
2016-12-21T00:59:49.763Z,0
2016-12-21T01:00:58.332Z,0
2016-12-21T01:02:06.903Z,0
2016-12-21T01:03:15.835Z,0
2016-12-21T01:04:24.412Z,0
2016-12-21T01:05:33.309Z,0
2016-12-21T01:06:42.208Z,0
2016-12-21T01:07:51.107Z,0
2016-12-21T01:08:59.742Z,0
2016-12-21T01:10:08.637Z,0
2016-12-21T01:11:17.220Z,0
2016-12-21T01:12:25.792Z,0
2016-12-21T01:13:34.377Z,0
2016-12-21T01:14:43.048Z,0
2016-12-21T01:15:51.628Z,0
2016-12-21T01:17:00.509Z,0
2016-12-21T01:18:09.071Z,0
2016-12-21T01:19:17.991Z,0
2016-12-21T01:20:27.239Z,0
2016-12-21T01:21:36.141Z,0
2016-12-21T01:22:44.722Z,0
2016-12-21T01:23:53.287Z,0
2016-12-21T01:25:02.198Z,0
2016-12-21T01:26:10.926Z,0
2016-12-21T01:27:19.846Z,0
2016-12-21T01:28:28.427Z,0
2016-12-21T01:29:37.348Z,0
2016-12-21T01:30:45.971Z,0
2016-12-21T01:31:54.966Z,0
2016-12-21T01:33:03.525Z,0
2016-12-21T01:34:12.110Z,0
2016-12-21T01:35:21.022Z,0
2016-12-21T01:36:29.612Z,0
2016-12-21T01:37:38.325Z,0
2016-12-21T01:38:46.927Z,0
2016-12-21T01:39:55.492Z,0
2016-12-21T01:41:04.406Z,0
2016-12-21T01:42:13.298Z,0
2016-12-21T01:43:22.289Z,0
2016-12-21T01:44:31.200Z,0
2016-12-21T01:45:39.767Z,0
2016-12-21T01:46:48.360Z,0
2016-12-21T01:47:57.301Z,0
2016-12-21T01:49:05.979Z,0
2016-12-21T01:50:15.197Z,0
2016-12-21T01:51:24.092Z,0
2016-12-21T01:52:32.682Z,0
2016-12-21T01:53:41.273Z,0
2016-12-21T01:54:50.839Z,0
2016-12-21T01:55:59.740Z,0
2016-12-21T01:57:08.330Z,0
2016-12-21T01:58:16.900Z,0
2016-12-21T01:59:25.488Z,0
2016-12-21T02:00:34.811Z,0
2016-12-21T02:01:43.387Z,0
2016-12-21T02:02:52.272Z,0
2016-12-21T02:04:01.176Z,0
2016-12-21T02:05:10.085Z,0
2016-12-21T02:06:18.743Z,0
2016-12-21T02:07:27.305Z,0
2016-12-21T02:08:36.202Z,0
2016-12-21T02:09:45.109Z,0
2016-12-21T02:10:54.650Z,0
2016-12-21T02:12:03.288Z,0
2016-12-21T02:13:11.864Z,0
2016-12-21T02:14:20.433Z,0
2016-12-21T02:15:29.005Z,0
2016-12-21T02:16:37.905Z,0
2016-12-21T02:17:46.833Z,0
2016-12-21T02:18:55.404Z,0
2016-12-21T02:20:04.623Z,0
2016-12-21T02:21:13.194Z,0
2016-12-21T02:22:21.770Z,0
2016-12-21T02:23:30.406Z,0
2016-12-21T02:24:39.606Z,0
2016-12-21T02:25:48.814Z,0
2016-12-21T02:26:57.402Z,0
2016-12-21T02:28:06.631Z,0
2016-12-21T02:29:15.639Z,0
2016-12-21T02:30:24.221Z,0
2016-12-21T02:31:33.123Z,0
2016-12-21T02:32:42.020Z,0
2016-12-21T02:33:51.563Z,0
2016-12-21T02:35:00.286Z,0
2016-12-21T02:36:09.195Z,0
2016-12-21T02:37:18.096Z,0
2016-12-21T02:38:26.686Z,0
2016-12-21T02:39:35.607Z,0
2016-12-21T02:40:44.569Z,0
2016-12-21T02:41:53.474Z,0
2016-12-21T02:43:02.695Z,0
2016-12-21T02:44:11.587Z,0
2016-12-21T02:45:20.479Z,0
2016-12-21T02:46:29.210Z,0
2016-12-21T02:47:38.104Z,0
2016-12-21T02:48:47.331Z,0
2016-12-21T02:49:56.546Z,0
2016-12-21T02:51:05.435Z,0
2016-12-21T02:52:14.354Z,0
2016-12-21T02:53:22.930Z,0
2016-12-21T02:54:31.496Z,0
2016-12-21T02:55:40.078Z,0
2016-12-21T02:56:48.660Z,0
2016-12-21T02:57:57.661Z,0
2016-12-21T02:59:06.241Z,0
2016-12-21T03:00:15.461Z,0
2016-12-21T03:01:24.681Z,0
2016-12-21T03:02:33.572Z,0
2016-12-21T03:03:42.526Z,0
2016-12-21T03:04:51.442Z,0
2016-12-21T03:06:00.008Z,0
2016-12-21T03:07:09.248Z,0
2016-12-21T03:08:18.141Z,0
2016-12-21T03:09:27.384Z,0
2016-12-21T03:10:36.285Z,0
2016-12-21T03:11:44.863Z,0
2016-12-21T03:12:53.484Z,0
2016-12-21T03:14:02.383Z,0
2016-12-21T03:15:11.319Z,0
2016-12-21T03:16:20.235Z,0
2016-12-21T03:17:28.821Z,0
2016-12-21T03:18:37.735Z,0
2016-12-21T03:19:46.649Z,0
2016-12-21T03:20:55.675Z,0
2016-12-21T03:22:04.249Z,0
2016-12-21T03:23:13.155Z,0
2016-12-21T03:24:21.739Z,0
2016-12-21T03:25:30.325Z,0
2016-12-21T03:26:39.287Z,0
2016-12-21T03:27:48.188Z,0
2016-12-21T03:28:57.096Z,0
2016-12-21T03:30:05.989Z,0
2016-12-21T03:31:14.575Z,0
2016-12-21T03:32:23.574Z,0
2016-12-21T03:33:32.169Z,0
2016-12-21T03:34:40.746Z,0
2016-12-21T03:35:49.627Z,0
2016-12-21T03:36:58.522Z,0
2016-12-21T03:38:08.099Z,0
2016-12-21T03:39:16.691Z,0
2016-12-21T03:40:25.611Z,0
2016-12-21T03:41:34.517Z,0
2016-12-21T03:42:43.097Z,0
2016-12-21T03:43:52.401Z,0
2016-12-21T03:45:01.627Z,0
2016-12-21T03:46:10.528Z,0
2016-12-21T03:47:19.099Z,0
2016-12-21T03:48:27.674Z,0
2016-12-21T03:49:37.009Z,0
2016-12-21T03:50:45.572Z,0
2016-12-21T03:51:54.819Z,0
2016-12-21T03:53:03.400Z,0
2016-12-21T03:54:11.987Z,0
2016-12-21T03:55:21.337Z,0
2016-12-21T03:56:30.556Z,0
2016-12-21T03:57:39.442Z,0
2016-12-21T03:58:48.029Z,0
2016-12-21T03:59:56.602Z,0
2016-12-21T04:01:05.565Z,0
2016-12-21T04:02:14.796Z,0
2016-12-21T04:03:23.697Z,0
2016-12-21T04:04:32.576Z,0
2016-12-21T04:05:41.166Z,0
2016-12-21T04:06:50.105Z,0
2016-12-21T04:07:59.324Z,0
2016-12-21T04:09:08.258Z,0
2016-12-21T04:10:16.840Z,0
2016-12-21T04:11:25.445Z,0
2016-12-21T04:12:34.074Z,0
2016-12-21T04:13:42.654Z,0
2016-12-21T04:14:51.559Z,0
2016-12-21T04:16:00.461Z,0
2016-12-21T04:17:09.044Z,0
2016-12-21T04:18:17.971Z,0
2016-12-21T04:19:26.882Z,0
2016-12-21T04:20:35.772Z,0
2016-12-21T04:21:44.341Z,0
2016-12-21T04:22:53.240Z,0
2016-12-21T04:24:01.929Z,0
2016-12-21T04:25:10.504Z,0
2016-12-21T04:26:19.100Z,0
2016-12-21T04:27:27.683Z,0
2016-12-21T04:28:36.583Z,0
2016-12-21T04:29:45.527Z,0
2016-12-21T04:30:54.749Z,0
2016-12-21T04:32:03.345Z,0
2016-12-21T04:33:11.917Z,0
2016-12-21T04:34:20.495Z,0
2016-12-21T04:35:29.750Z,0
2016-12-21T04:36:38.324Z,0
2016-12-21T04:37:46.907Z,0
2016-12-21T04:38:55.479Z,0
2016-12-21T04:40:04.691Z,0
2016-12-21T04:41:13.653Z,0
2016-12-21T04:42:22.556Z,0
2016-12-21T04:43:31.120Z,0
2016-12-21T04:44:39.700Z,0
2016-12-21T04:45:48.915Z,0
2016-12-21T04:46:57.960Z,0
2016-12-21T04:48:06.873Z,0
2016-12-21T04:49:15.783Z,0
2016-12-21T04:50:24.367Z,0
2016-12-21T04:51:33.265Z,0
2016-12-21T04:52:42.514Z,0
2016-12-21T04:53:51.425Z,0
2016-12-21T04:55:00.314Z,0
2016-12-21T04:56:09.221Z,0
2016-12-21T04:57:18.124Z,0
2016-12-21T04:58:27.099Z,0
2016-12-21T04:59:36.308Z,0
2016-12-21T05:00:45.853Z,0
2016-12-21T05:01:55.090Z,0
2016-12-21T05:03:04.011Z,0
2016-12-21T05:04:12.994Z,0
2016-12-21T05:05:21.918Z,0
2016-12-21T05:06:30.496Z,0
2016-12-21T05:07:39.407Z,0
2016-12-21T05:08:48.319Z,0
2016-12-21T05:09:56.941Z,0
2016-12-21T05:11:05.515Z,0
2016-12-21T05:12:14.738Z,0
2016-12-21T05:13:23.630Z,0
2016-12-21T05:14:32.213Z,0
2016-12-21T05:15:41.555Z,0
2016-12-21T05:16:50.127Z,0
2016-12-21T05:17:59.036Z,0
2016-12-21T05:19:07.947Z,0
2016-12-21T05:20:17.172Z,0
2016-12-21T05:21:26.108Z,0
2016-12-21T05:22:34.693Z,0
2016-12-21T05:23:43.293Z,0
2016-12-21T05:24:51.884Z,0
2016-12-21T05:26:00.455Z,0
2016-12-21T05:27:09.421Z,0
2016-12-21T05:28:18.008Z,0
2016-12-21T05:29:26.898Z,0
2016-12-21T05:30:35.807Z,0
2016-12-21T05:31:44.379Z,0
2016-12-21T05:32:53.051Z,0
2016-12-21T05:34:01.934Z,0
2016-12-21T05:35:10.508Z,0
2016-12-21T05:36:19.080Z,0
2016-12-21T05:37:28.001Z,0
2016-12-21T05:38:37.257Z,0
2016-12-21T05:39:45.835Z,0
2016-12-21T05:40:54.743Z,0
2016-12-21T05:42:04.282Z,0
2016-12-21T05:43:12.866Z,0
2016-12-21T05:44:21.801Z,0
2016-12-21T05:45:30.390Z,0
2016-12-21T05:46:39.306Z,0
2016-12-21T05:47:48.201Z,0
2016-12-21T05:48:57.096Z,0
2016-12-21T05:50:06.673Z,0
2016-12-21T05:51:15.254Z,0
2016-12-21T05:52:24.495Z,0
2016-12-21T05:53:33.390Z,0
2016-12-21T05:54:41.988Z,0
2016-12-21T05:55:50.948Z,0
2016-12-21T05:57:00.187Z,0
2016-12-21T05:58:09.095Z,0
2016-12-21T05:59:18.310Z,0
2016-12-21T06:00:27.201Z,0
2016-12-21T06:01:36.137Z,0
2016-12-21T06:02:44.716Z,0
2016-12-21T06:03:54.259Z,0
2016-12-21T06:05:03.149Z,0
2016-12-21T06:06:12.051Z,0
2016-12-21T06:07:20.686Z,0
2016-12-21T06:08:29.273Z,0
2016-12-21T06:09:37.897Z,0
2016-12-21T06:10:46.799Z,0
2016-12-21T06:11:55.388Z,0
2016-12-21T06:13:04.339Z,0
2016-12-21T06:14:13.547Z,0
2016-12-21T06:15:22.770Z,0
2016-12-21T06:16:31.676Z,0
2016-12-21T06:17:40.574Z,0
2016-12-21T06:18:49.520Z,0
2016-12-21T06:19:58.082Z,0
2016-12-21T06:21:06.989Z,0
2016-12-21T06:22:15.898Z,0
2016-12-21T06:23:25.127Z,0
2016-12-21T06:24:34.068Z,0
2016-12-21T06:25:42.993Z,0
2016-12-21T06:26:51.573Z,0
2016-12-21T06:28:00.840Z,0
2016-12-21T06:29:09.413Z,0
2016-12-21T06:30:18.095Z,0
2016-12-21T06:31:26.983Z,0
2016-12-21T06:32:35.888Z,0
2016-12-21T06:33:44.475Z,0
2016-12-21T06:34:53.371Z,0
2016-12-21T06:36:02.652Z,0
2016-12-21T06:37:11.567Z,0
2016-12-21T06:38:20.481Z,0
2016-12-21T06:39:29.394Z,0
2016-12-21T06:40:37.977Z,0
2016-12-21T06:41:46.963Z,0
2016-12-21T06:42:56.183Z,0
2016-12-21T06:44:04.771Z,0
2016-12-21T06:45:13.675Z,0
2016-12-21T06:46:22.255Z,0
2016-12-21T06:47:31.215Z,0
2016-12-21T06:48:40.111Z,0
2016-12-21T06:49:49.331Z,0
2016-12-21T06:50:58.226Z,0
2016-12-21T06:52:06.788Z,0
2016-12-21T06:53:15.434Z,0
2016-12-21T06:54:24.355Z,0
2016-12-21T06:55:32.935Z,0
2016-12-21T06:56:41.839Z,0
2016-12-21T06:57:50.417Z,0
2016-12-21T06:58:59.048Z,0
2016-12-21T07:00:07.618Z,0
2016-12-21T07:01:16.198Z,0
2016-12-21T07:02:24.765Z,0
2016-12-21T07:03:33.672Z,0
2016-12-21T07:04:42.310Z,0
2016-12-21T07:05:51.215Z,0
2016-12-21T07:06:59.798Z,0
2016-12-21T07:08:09.030Z,0
2016-12-21T07:09:17.929Z,0
2016-12-21T07:10:26.897Z,0
2016-12-21T07:11:35.466Z,0
2016-12-21T07:12:44.693Z,0
2016-12-21T07:13:53.590Z,0
2016-12-21T07:15:02.180Z,0
2016-12-21T07:16:10.816Z,0
2016-12-21T07:17:19.405Z,0
2016-12-21T07:18:28.308Z,0
2016-12-21T07:19:37.203Z,0
2016-12-21T07:20:45.788Z,0
2016-12-21T07:21:54.743Z,0
2016-12-21T07:23:03.323Z,0
2016-12-21T07:24:12.538Z,5
2016-12-21T07:25:21.436Z,5
2016-12-21T07:26:30.339Z,5
2016-12-21T07:27:39.931Z,5
2016-12-21T07:28:48.504Z,5
2016-12-21T07:29:57.414Z,5
2016-12-21T07:31:06.312Z,10
2016-12-21T07:32:15.218Z,10
2016-12-21T07:33:24.158Z,10
2016-12-21T07:34:33.067Z,10
2016-12-21T07:35:42.285Z,15
2016-12-21T07:36:50.870Z,20
2016-12-21T07:37:59.444Z,20
2016-12-21T07:39:08.395Z,25
2016-12-21T07:40:16.982Z,20
2016-12-21T07:41:25.887Z,25
2016-12-21T07:42:34.465Z,25
2016-12-21T07:43:43.031Z,30
2016-12-21T07:44:52.287Z,30
2016-12-21T07:46:00.872Z,30
2016-12-21T07:47:09.462Z,35
2016-12-21T07:48:18.371Z,35
2016-12-21T07:49:27.902Z,35
2016-12-21T07:50:36.851Z,40
2016-12-21T07:51:45.753Z,40
2016-12-21T07:52:54.337Z,45
2016-12-21T07:54:02.923Z,45
2016-12-21T07:55:11.510Z,50
2016-12-21T07:56:20.464Z,50
2016-12-21T07:57:29.026Z,55
2016-12-21T07:58:37.606Z,60
2016-12-21T07:59:46.190Z,60
2016-12-21T08:00:55.098Z,65
2016-12-21T08:02:04.409Z,65
2016-12-21T08:03:13.316Z,70
2016-12-21T08:04:22.227Z,70
2016-12-21T08:05:31.132Z,70
2016-12-21T08:06:39.712Z,75
2016-12-21T08:07:48.966Z,75
2016-12-21T08:08:57.871Z,80
2016-12-21T08:10:06.444Z,85
2016-12-21T08:11:15.343Z,85
2016-12-21T08:12:24.231Z,90
2016-12-21T08:13:32.912Z,90
2016-12-21T08:14:41.485Z,90
2016-12-21T08:15:50.386Z,95
2016-12-21T08:16:59.295Z,95
2016-12-21T08:18:07.866Z,100
2016-12-21T08:19:17.228Z,105
2016-12-21T08:20:26.134Z,105
2016-12-21T08:21:35.376Z,110
2016-12-21T08:22:43.976Z,110
2016-12-21T08:23:52.549Z,115
2016-12-21T08:25:01.170Z,115
2016-12-21T08:26:10.066Z,120
2016-12-21T08:27:18.956Z,120
2016-12-21T08:28:27.869Z,125
2016-12-21T08:29:36.806Z,125
2016-12-21T08:30:45.485Z,125
2016-12-21T08:31:54.065Z,130
2016-12-21T08:33:02.649Z,135
2016-12-21T08:34:11.856Z,135
2016-12-21T08:35:21.068Z,140
2016-12-21T08:36:30.072Z,140
2016-12-21T08:37:39.295Z,145
2016-12-21T08:38:47.891Z,150
2016-12-21T08:39:56.462Z,155
2016-12-21T08:41:05.361Z,155
2016-12-21T08:42:13.988Z,160
2016-12-21T08:43:22.890Z,165
2016-12-21T08:44:31.800Z,170
2016-12-21T08:45:40.375Z,175
2016-12-21T08:46:49.605Z,175
2016-12-21T08:47:58.553Z,180
2016-12-21T08:49:07.454Z,180
2016-12-21T08:50:16.352Z,185
2016-12-21T08:51:24.933Z,190
2016-12-21T08:52:33.845Z,190
2016-12-21T08:53:43.111Z,195
2016-12-21T08:54:51.683Z,200
2016-12-21T08:56:00.266Z,200
2016-12-21T08:57:08.850Z,200
2016-12-21T08:58:17.752Z,205
2016-12-21T08:59:26.684Z,205
2016-12-21T09:00:35.579Z,205
2016-12-21T09:01:44.168Z,205
2016-12-21T09:02:53.065Z,210
2016-12-21T09:04:02.000Z,215
2016-12-21T09:05:11.273Z,220
2016-12-21T09:06:19.856Z,225
2016-12-21T09:07:28.449Z,230
2016-12-21T09:08:37.040Z,230
2016-12-21T09:09:45.618Z,235
2016-12-21T09:10:54.589Z,235
2016-12-21T09:12:03.177Z,235
2016-12-21T09:13:12.076Z,235
2016-12-21T09:14:20.665Z,235
2016-12-21T09:15:29.590Z,230
2016-12-21T09:16:38.280Z,225
2016-12-21T09:17:47.191Z,225
2016-12-21T09:18:55.783Z,220
2016-12-21T09:20:04.684Z,215
2016-12-21T09:21:13.573Z,215
2016-12-21T09:22:22.856Z,215
2016-12-21T09:23:32.094Z,215
2016-12-21T09:24:41.309Z,215
2016-12-21T09:25:50.212Z,215
2016-12-21T09:26:58.786Z,220
2016-12-21T09:28:07.716Z,220
2016-12-21T09:29:16.626Z,225
2016-12-21T09:30:25.215Z,225
2016-12-21T09:31:33.795Z,225
2016-12-21T09:32:42.378Z,220
2016-12-21T09:33:50.998Z,220
2016-12-21T09:34:59.585Z,225
2016-12-21T09:36:08.483Z,225
2016-12-21T09:37:17.725Z,225
2016-12-21T09:38:26.330Z,230
2016-12-21T09:39:35.582Z,230
2016-12-21T09:40:44.174Z,235
2016-12-21T09:41:53.076Z,240
2016-12-21T09:43:01.658Z,250
2016-12-21T09:44:10.563Z,255
2016-12-21T09:45:19.202Z,260
2016-12-21T09:46:28.123Z,265
2016-12-21T09:47:37.350Z,265
2016-12-21T09:48:46.290Z,265
2016-12-21T09:49:55.181Z,270
2016-12-21T09:51:03.829Z,275
2016-12-21T09:52:12.410Z,275
2016-12-21T09:53:20.998Z,275
2016-12-21T09:54:29.583Z,275
2016-12-21T09:55:38.498Z,275
2016-12-21T09:56:47.134Z,270
2016-12-21T09:57:55.717Z,265
2016-12-21T09:59:04.302Z,265
2016-12-21T10:00:13.218Z,260
2016-12-21T10:01:21.813Z,255
2016-12-21T10:02:30.496Z,255
2016-12-21T10:03:39.419Z,250
2016-12-21T10:04:48.328Z,250
2016-12-21T10:05:56.915Z,250
2016-12-21T10:07:05.496Z,250
2016-12-21T10:08:14.128Z,245
2016-12-21T10:09:22.732Z,245
2016-12-21T10:10:31.636Z,240
2016-12-21T10:11:41.185Z,235
2016-12-21T10:12:50.081Z,235
2016-12-21T10:13:59.076Z,240
2016-12-21T10:15:07.665Z,250
2016-12-21T10:16:16.871Z,255
2016-12-21T10:17:26.099Z,260
2016-12-21T10:18:34.680Z,265
2016-12-21T10:19:43.631Z,265
2016-12-21T10:20:52.214Z,270
2016-12-21T10:22:00.799Z,270
2016-12-21T10:23:10.031Z,270
2016-12-21T10:24:19.609Z,275
2016-12-21T10:25:29.053Z,270
2016-12-21T10:26:39.266Z,270
2016-12-21T10:27:49.055Z,265
2016-12-21T10:28:59.805Z,260
2016-12-21T10:30:09.120Z,255
2016-12-21T10:31:18.073Z,255
2016-12-21T10:32:26.990Z,255
2016-12-21T10:33:35.886Z,250
2016-12-21T10:34:44.468Z,245
2016-12-21T10:35:53.364Z,240
2016-12-21T10:37:02.025Z,240
2016-12-21T10:38:11.570Z,240
2016-12-21T10:39:20.158Z,235
2016-12-21T10:40:29.061Z,235
2016-12-21T10:41:37.640Z,240
2016-12-21T10:42:46.262Z,240
2016-12-21T10:43:54.838Z,240
2016-12-21T10:45:03.737Z,240
2016-12-21T10:46:12.334Z,245
2016-12-21T10:47:20.928Z,255
2016-12-21T10:48:30.266Z,265
2016-12-21T10:49:38.852Z,280
2016-12-21T10:50:47.429Z,295
2016-12-21T10:51:56.331Z,300
2016-12-21T10:53:04.939Z,310
2016-12-21T10:54:13.621Z,320
2016-12-21T10:55:22.509Z,330
2016-12-21T10:56:31.108Z,340
2016-12-21T10:57:40.026Z,350
2016-12-21T10:58:49.250Z,350
2016-12-21T10:59:58.697Z,360
2016-12-21T11:01:07.598Z,375
2016-12-21T11:02:16.813Z,365
2016-12-21T11:03:25.728Z,370
2016-12-21T11:04:34.637Z,385
2016-12-21T11:05:43.427Z,405
2016-12-21T11:06:52.016Z,385
2016-12-21T11:08:01.247Z,355
2016-12-21T11:09:09.833Z,375
2016-12-21T11:10:19.055Z,355
2016-12-21T11:11:27.726Z,370
2016-12-21T11:12:36.626Z,355
2016-12-21T11:13:45.542Z,330
2016-12-21T11:14:54.135Z,335
2016-12-21T11:16:03.059Z,350
2016-12-21T11:17:12.012Z,345
2016-12-21T11:18:20.593Z,360
2016-12-21T11:19:29.194Z,360
2016-12-21T11:20:37.771Z,370
2016-12-21T11:21:46.366Z,375
2016-12-21T11:22:55.520Z,385
2016-12-21T11:24:04.105Z,400
2016-12-21T11:25:12.717Z,425
2016-12-21T11:26:21.952Z,415
2016-12-21T11:27:31.195Z,425
2016-12-21T11:28:39.979Z,430
2016-12-21T11:29:49.214Z,480
2016-12-21T11:30:57.797Z,465
2016-12-21T11:32:06.391Z,480
2016-12-21T11:33:14.971Z,495
2016-12-21T11:34:23.754Z,510
2016-12-21T11:35:32.345Z,535
2016-12-21T11:36:40.926Z,535
2016-12-21T11:37:49.843Z,525
2016-12-21T11:38:58.418Z,500
2016-12-21T11:40:07.046Z,475
2016-12-21T11:41:15.635Z,470
2016-12-21T11:42:24.220Z,455
2016-12-21T11:43:33.451Z,465
2016-12-21T11:44:42.042Z,455
2016-12-21T11:45:50.687Z,445
2016-12-21T11:46:59.593Z,395
2016-12-21T11:48:08.194Z,375
2016-12-21T11:49:17.100Z,380
2016-12-21T11:50:26.047Z,385
2016-12-21T11:51:35.092Z,400
2016-12-21T11:52:43.992Z,410
2016-12-21T11:53:52.896Z,435
2016-12-21T11:55:01.511Z,435
2016-12-21T11:56:10.090Z,415
2016-12-21T11:57:19.095Z,420
2016-12-21T11:58:27.678Z,405
2016-12-21T11:59:36.582Z,350
2016-12-21T12:00:45.485Z,350
2016-12-21T12:01:54.057Z,340
2016-12-21T12:03:03.058Z,320
2016-12-21T12:04:11.640Z,305
2016-12-21T12:05:20.554Z,330
2016-12-21T12:06:29.139Z,330
2016-12-21T12:07:38.370Z,315
2016-12-21T12:08:47.320Z,310
2016-12-21T12:09:56.227Z,295
2016-12-21T12:11:05.141Z,310
2016-12-21T12:12:14.372Z,295
2016-12-21T12:13:23.585Z,305
2016-12-21T12:14:32.541Z,290
2016-12-21T12:15:41.486Z,305
2016-12-21T12:16:50.064Z,335
2016-12-21T12:17:58.964Z,340
2016-12-21T12:19:07.859Z,320
2016-12-21T12:20:16.501Z,320
2016-12-21T12:21:25.394Z,315
2016-12-21T12:22:34.285Z,305
2016-12-21T12:23:43.182Z,310
2016-12-21T12:24:51.768Z,305
2016-12-21T12:26:00.461Z,300
2016-12-21T12:27:09.372Z,295
2016-12-21T12:28:18.270Z,290
2016-12-21T12:29:26.845Z,300
2016-12-21T12:30:35.772Z,300
2016-12-21T12:31:44.408Z,285
2016-12-21T12:32:53.309Z,270
2016-12-21T12:34:01.894Z,265
2016-12-21T12:35:10.799Z,260
2016-12-21T12:36:19.733Z,245
2016-12-21T12:37:28.761Z,260
2016-12-21T12:38:37.660Z,275
2016-12-21T12:39:46.250Z,290
2016-12-21T12:40:55.148Z,295
2016-12-21T12:42:04.057Z,280
2016-12-21T12:43:12.921Z,280
2016-12-21T12:44:21.823Z,295
2016-12-21T12:45:31.068Z,290
2016-12-21T12:46:39.652Z,295
2016-12-21T12:47:48.537Z,280
2016-12-21T12:48:57.498Z,275
2016-12-21T12:50:06.721Z,280
2016-12-21T12:51:15.941Z,275
2016-12-21T12:52:24.529Z,265
2016-12-21T12:53:33.760Z,260
2016-12-21T12:54:42.692Z,260
2016-12-21T12:55:51.290Z,255
2016-12-21T12:57:00.197Z,265
2016-12-21T12:58:09.430Z,250
2016-12-21T12:59:18.328Z,235
2016-12-21T13:00:27.274Z,225
2016-12-21T13:01:36.501Z,215
2016-12-21T13:02:45.726Z,205
2016-12-21T13:03:54.624Z,220
2016-12-21T13:05:03.229Z,210
2016-12-21T13:06:11.860Z,210
2016-12-21T13:07:20.764Z,190
2016-12-21T13:08:29.990Z,175
2016-12-21T13:09:38.892Z,165
2016-12-21T13:10:47.489Z,180
2016-12-21T13:11:56.775Z,170
2016-12-21T13:13:05.370Z,180
2016-12-21T13:14:13.960Z,175
2016-12-21T13:15:22.542Z,160
2016-12-21T13:16:31.428Z,150
2016-12-21T13:17:40.384Z,145
2016-12-21T13:18:48.980Z,140
2016-12-21T13:19:57.569Z,140
2016-12-21T13:21:06.810Z,135
2016-12-21T13:22:15.724Z,120
2016-12-21T13:23:24.665Z,125
2016-12-21T13:24:33.236Z,130
2016-12-21T13:25:42.133Z,130
2016-12-21T13:26:50.716Z,125
2016-12-21T13:27:59.300Z,125
2016-12-21T13:29:08.647Z,115
2016-12-21T13:30:17.541Z,110
2016-12-21T13:31:26.126Z,120
2016-12-21T13:32:35.050Z,130
2016-12-21T13:33:43.972Z,130
2016-12-21T13:34:53.311Z,125
2016-12-21T13:36:02.219Z,120
2016-12-21T13:37:10.810Z,115
2016-12-21T13:38:19.705Z,115
2016-12-21T13:39:28.281Z,115
2016-12-21T13:40:37.572Z,110
2016-12-21T13:41:46.807Z,105
2016-12-21T13:42:55.384Z,105
2016-12-21T13:44:04.600Z,105
2016-12-21T13:45:13.191Z,100
2016-12-21T13:46:21.828Z,95
2016-12-21T13:47:30.400Z,90
2016-12-21T13:48:39.026Z,85
2016-12-21T13:49:47.631Z,80
2016-12-21T13:50:56.210Z,90
2016-12-21T13:52:04.840Z,90
2016-12-21T13:53:13.406Z,90
2016-12-21T13:54:22.291Z,90
2016-12-21T13:55:31.191Z,90
2016-12-21T13:56:40.425Z,85
2016-12-21T13:57:49.376Z,85
2016-12-21T13:58:57.960Z,85
2016-12-21T14:00:07.194Z,80
2016-12-21T14:01:16.110Z,80
2016-12-21T14:02:25.010Z,75
2016-12-21T14:03:33.635Z,75
2016-12-21T14:04:42.539Z,75
2016-12-21T14:05:51.112Z,75
2016-12-21T14:07:00.350Z,80
2016-12-21T14:08:09.257Z,75
2016-12-21T14:09:18.618Z,80
2016-12-21T14:10:27.194Z,80
2016-12-21T14:11:36.101Z,75
2016-12-21T14:12:44.992Z,75
2016-12-21T14:13:53.886Z,75
2016-12-21T14:15:02.535Z,75
2016-12-21T14:16:11.756Z,70
2016-12-21T14:17:20.964Z,70
2016-12-21T14:18:30.197Z,65
2016-12-21T14:19:38.798Z,65
2016-12-21T14:20:48.156Z,65
2016-12-21T14:21:56.732Z,60
2016-12-21T14:23:05.650Z,55
2016-12-21T14:24:14.879Z,50
2016-12-21T14:25:23.785Z,55
2016-12-21T14:26:32.710Z,50
2016-12-21T14:27:41.647Z,45
2016-12-21T14:28:50.550Z,45
2016-12-21T14:29:59.144Z,45
2016-12-21T14:31:07.740Z,40
2016-12-21T14:32:16.378Z,40
2016-12-21T14:33:25.284Z,40
2016-12-21T14:34:33.868Z,35
2016-12-21T14:35:42.436Z,35
2016-12-21T14:36:51.657Z,35
2016-12-21T14:38:00.612Z,30
2016-12-21T14:39:09.194Z,30
2016-12-21T14:40:17.791Z,30
2016-12-21T14:41:26.386Z,30
2016-12-21T14:42:34.967Z,30
2016-12-21T14:43:43.601Z,30
2016-12-21T14:44:52.519Z,30
2016-12-21T14:46:01.120Z,25
2016-12-21T14:47:10.032Z,25
2016-12-21T14:48:18.623Z,25
2016-12-21T14:49:28.201Z,25
2016-12-21T14:50:37.752Z,20
2016-12-21T14:51:46.367Z,20
2016-12-21T14:52:55.274Z,20
2016-12-21T14:54:03.862Z,20
2016-12-21T14:55:12.801Z,20
2016-12-21T14:56:22.344Z,15
2016-12-21T14:57:30.936Z,15
2016-12-21T14:58:40.171Z,15
2016-12-21T14:59:48.750Z,15
2016-12-21T15:00:57.707Z,15
2016-12-21T15:02:06.282Z,10
2016-12-21T15:03:14.867Z,10
2016-12-21T15:04:23.790Z,10
2016-12-21T15:05:32.356Z,10
2016-12-21T15:06:41.289Z,10
2016-12-21T15:07:50.194Z,10
2016-12-21T15:08:58.794Z,5
2016-12-21T15:10:07.377Z,5
2016-12-21T15:11:16.277Z,5
2016-12-21T15:12:25.008Z,5
2016-12-21T15:13:33.920Z,5
2016-12-21T15:14:42.839Z,5
2016-12-21T15:15:51.422Z,5
2016-12-21T15:17:00.332Z,5
2016-12-21T15:18:08.972Z,5
2016-12-21T15:19:17.548Z,5
2016-12-21T15:20:26.136Z,0
2016-12-21T15:21:35.037Z,0
2016-12-21T15:22:43.930Z,0
2016-12-21T15:23:52.876Z,0
2016-12-21T15:25:01.464Z,0
2016-12-21T15:26:10.699Z,0
2016-12-21T15:27:19.290Z,0
2016-12-21T15:28:28.201Z,0
2016-12-21T15:29:36.835Z,0
2016-12-21T15:30:46.051Z,0
2016-12-21T15:31:54.647Z,0
2016-12-21T15:33:03.872Z,0
2016-12-21T15:34:12.781Z,0
2016-12-21T15:35:21.413Z,0
2016-12-21T15:36:30.307Z,0
2016-12-21T15:37:38.887Z,0
2016-12-21T15:38:47.836Z,0
2016-12-21T15:39:56.417Z,0
2016-12-21T15:41:05.167Z,0
2016-12-21T15:42:14.057Z,0
2016-12-21T15:43:22.637Z,0
2016-12-21T15:44:31.529Z,0
2016-12-21T15:45:40.437Z,0
2016-12-21T15:46:49.366Z,0
2016-12-21T15:47:57.943Z,0
2016-12-21T15:49:06.852Z,0
2016-12-21T15:50:16.082Z,0
2016-12-21T15:51:24.993Z,0
2016-12-21T15:52:34.028Z,0
2016-12-21T15:53:43.239Z,0
2016-12-21T15:54:52.144Z,0
2016-12-21T15:56:00.743Z,0
2016-12-21T15:57:09.343Z,0
2016-12-21T15:58:17.979Z,0
2016-12-21T15:59:26.576Z,0
2016-12-21T16:00:35.161Z,0
2016-12-21T16:01:44.066Z,0
2016-12-21T16:02:53.285Z,0
2016-12-21T16:04:02.617Z,0
2016-12-21T16:05:11.193Z,0
2016-12-21T16:06:20.084Z,0
2016-12-21T16:07:28.988Z,0
2016-12-21T16:08:37.876Z,0
2016-12-21T16:09:46.832Z,0
2016-12-21T16:10:56.054Z,0
2016-12-21T16:12:04.659Z,0
2016-12-21T16:13:13.566Z,0
2016-12-21T16:14:22.141Z,0
2016-12-21T16:15:30.836Z,0
2016-12-21T16:16:39.743Z,0
2016-12-21T16:17:48.649Z,0
2016-12-21T16:18:57.260Z,0
2016-12-21T16:20:06.166Z,0
2016-12-21T16:21:15.120Z,0
2016-12-21T16:22:24.356Z,0
2016-12-21T16:23:32.942Z,0
2016-12-21T16:24:41.536Z,0
2016-12-21T16:25:50.119Z,0
2016-12-21T16:26:59.385Z,0
2016-12-21T16:28:07.964Z,0